Terminal Aerodrome Forecast
Issued by NWS

Home | Current Version | Previous Version | Text Only | Print | Product List | Glossary On
Versions: 1 2 3 4 5 6 7 8 9 10 11 12 13 14 15 16
754
FTUS43 KSGF 270859 AAA
TAFJLN
TAF AMD
KJLN 270859Z 2709/2806 31015G30KT 3SM -SHRA BR SCT015 BKN025
     FM270930 32015KT P6SM SCT015 BKN025
     FM271200 18013KT P6SM OVC025
     FM271800 18012KT P6SM -SHRA VCTS OVC045CB
     FM280000 17012KT P6SM OVC080=

USA.gov is the U.S. government's official web portal to all federal, state and local government web resources and services.